sensor_id;sensor_type;location;lat;lon;timestamp;noise_LAeq;noise_LA_min;noise_LA_max;noise_LA01;noise_LA95
66888;Laerm;67239;51.680;5.976;2024-02-26T00:01:27;34.77;30.65;46.00;;
66888;Laerm;67239;51.680;5.976;2024-02-26T00:04:12;33.03;30.85;36.74;;
66888;Laerm;67239;51.680;5.976;2024-02-26T00:07:01;56.09;31.67;76.60;;
66888;Laerm;67239;51.680;5.976;2024-02-26T00:10:06;36.20;31.21;53.92;;
66888;Laerm;67239;51.680;5.976;2024-02-26T00:13:24;34.86;31.56;46.46;;
66888;Laerm;67239;51.680;5.976;2024-02-26T00:16:21;34.77;31.57;44.92;;
66888;Laerm;67239;51.680;5.976;2024-02-26T00:19:05;33.98;31.29;46.12;;
66888;Laerm;67239;51.680;5.976;2024-02-26T00:21:42;33.06;30.45;39.38;;
66888;Laerm;67239;51.680;5.976;2024-02-26T00:24:41;33.16;30.28;47.78;;
66888;Laerm;67239;51.680;5.976;2024-02-26T00:28:16;34.18;31.03;44.99;;
66888;Laerm;67239;51.680;5.976;2024-02-26T00:31:15;36.19;31.71;47.55;;
66888;Laerm;67239;51.680;5.976;2024-02-26T00:34:36;34.93;31.20;47.01;;
66888;Laerm;67239;51.680;5.976;2024-02-26T00:38:18;32.80;30.23;37.29;;
66888;Laerm;67239;51.680;5.976;2024-02-26T00:41:18;33.62;30.26;45.57;;
66888;Laerm;67239;51.680;5.976;2024-02-26T00:44:53;32.32;29.93;35.30;;
66888;Laerm;67239;51.680;5.976;2024-02-26T00:47:39;32.36;30.12;36.13;;
66888;Laerm;67239;51.680;5.976;2024-02-26T00:50:47;33.52;30.04;45.61;;
66888;Laerm;67239;51.680;5.976;2024-02-26T00:53:48;34.24;31.15;42.20;;
66888;Laerm;67239;51.680;5.976;2024-02-26T00:56:37;34.08;31.20;40.51;;
66888;Laerm;67239;51.680;5.976;2024-02-26T00:59:39;33.26;30.70;39.59;;
66888;Laerm;67239;51.680;5.976;2024-02-26T01:03:19;33.78;30.96;41.94;;
66888;Laerm;67239;51.680;5.976;2024-02-26T01:06:16;33.77;30.62;48.00;;
66888;Laerm;67239;51.680;5.976;2024-02-26T01:09:10;56.20;30.63;76.92;;
66888;Laerm;67239;51.680;5.976;2024-02-26T01:12:09;33.40;30.64;42.94;;
66888;Laerm;67239;51.680;5.976;2024-02-26T01:15:20;33.27;30.96;36.73;;
66888;Laerm;67239;51.680;5.976;2024-02-26T01:18:12;33.98;30.91;38.97;;
66888;Laerm;67239;51.680;5.976;2024-02-26T01:21:37;33.19;30.48;39.12;;
66888;Laerm;67239;51.680;5.976;2024-02-26T01:24:13;55.69;30.40;74.33;;
66888;Laerm;67239;51.680;5.976;2024-02-26T01:27:10;33.05;30.47;42.85;;
66888;Laerm;67239;51.680;5.976;2024-02-26T01:29:59;32.61;30.02;42.00;;
66888;Laerm;67239;51.680;5.976;2024-02-26T01:32:53;32.53;30.16;39.58;;
66888;Laerm;67239;51.680;5.976;2024-02-26T01:36:15;32.60;30.17;38.84;;
66888;Laerm;67239;51.680;5.976;2024-02-26T01:39:12;33.52;31.16;36.85;;
66888;Laerm;67239;51.680;5.976;2024-02-26T01:42:10;33.40;30.41;49.54;;
66888;Laerm;67239;51.680;5.976;2024-02-26T01:45:34;32.61;30.47;39.27;;
66888;Laerm;67239;51.680;5.976;2024-02-26T01:48:28;33.46;30.93;39.39;;
66888;Laerm;67239;51.680;5.976;2024-02-26T01:51:55;38.84;31.63;55.12;;
66888;Laerm;67239;51.680;5.976;2024-02-26T01:54:53;59.22;31.53;76.62;;
66888;Laerm;67239;51.680;5.976;2024-02-26T01:58:10;39.72;31.63;61.82;;
66888;Laerm;67239;51.680;5.976;2024-02-26T02:01:12;35.34;32.47;47.27;;
66888;Laerm;67239;51.680;5.976;2024-02-26T02:04:02;36.70;32.06;57.93;;
66888;Laerm;67239;51.680;5.976;2024-02-26T02:07:02;43.77;31.98;61.83;;
66888;Laerm;67239;51.680;5.976;2024-02-26T02:10:27;41.00;32.12;62.19;;
66888;Laerm;67239;51.680;5.976;2024-02-26T02:13:29;56.99;32.19;76.66;;
66888;Laerm;67239;51.680;5.976;2024-02-26T02:16:51;37.34;31.89;52.62;;
66888;Laerm;67239;51.680;5.976;2024-02-26T02:20:00;34.34;31.88;39.82;;
66888;Laerm;67239;51.680;5.976;2024-02-26T02:23:26;35.68;31.99;49.87;;
66888;Laerm;67239;51.680;5.976;2024-02-26T02:26:59;35.54;32.86;40.72;;
66888;Laerm;67239;51.680;5.976;2024-02-26T02:30:45;34.48;32.00;40.59;;
66888;Laerm;67239;51.680;5.976;2024-02-26T02:33:47;36.64;33.13;47.49;;
66888;Laerm;67239;51.680;5.976;2024-02-26T02:37:03;36.87;34.44;45.69;;
66888;Laerm;67239;51.680;5.976;2024-02-26T02:40:32;37.45;33.97;46.88;;
66888;Laerm;67239;51.680;5.976;2024-02-26T02:43:50;37.21;33.80;49.94;;
66888;Laerm;67239;51.680;5.976;2024-02-26T02:47:23;36.66;33.08;47.55;;
66888;Laerm;67239;51.680;5.976;2024-02-26T02:51:34;39.07;33.47;57.67;;
66888;Laerm;67239;51.680;5.976;2024-02-26T02:54:32;55.11;33.37;73.47;;
66888;Laerm;67239;51.680;5.976;2024-02-26T02:58:06;60.51;35.38;79.20;;
66888;Laerm;67239;51.680;5.976;2024-02-26T03:01:55;56.11;35.23;73.46;;
66888;Laerm;67239;51.680;5.976;2024-02-26T03:04:58;63.33;37.56;83.20;;
66888;Laerm;67239;51.680;5.976;2024-02-26T03:08:21;56.93;35.46;77.80;;
66888;Laerm;67239;51.680;5.976;2024-02-26T03:11:46;47.12;33.81;65.93;;
66888;Laerm;67239;51.680;5.976;2024-02-26T03:15:10;50.31;33.60;72.75;;
66888;Laerm;67239;51.680;5.976;2024-02-26T03:18:45;46.54;31.59;65.66;;
66888;Laerm;67239;51.680;5.976;2024-02-26T03:22:34;42.07;33.27;62.28;;
66888;Laerm;67239;51.680;5.976;2024-02-26T03:26:18;42.71;34.24;60.42;;
66888;Laerm;67239;51.680;5.976;2024-02-26T03:29:48;45.03;34.91;62.47;;
66888;Laerm;67239;51.680;5.976;2024-02-26T03:33:03;43.93;34.07;60.56;;
66888;Laerm;67239;51.680;5.976;2024-02-26T03:36:12;44.75;34.55;63.28;;
66888;Laerm;67239;51.680;5.976;2024-02-26T03:40:36;42.60;35.82;56.85;;
66888;Laerm;67239;51.680;5.976;2024-02-26T03:44:42;59.70;35.30;81.86;;
66888;Laerm;67239;51.680;5.976;2024-02-26T03:48:00;40.24;33.34;57.78;;
66888;Laerm;67239;51.680;5.976;2024-02-26T03:51:30;58.82;34.55;76.62;;
66888;Laerm;67239;51.680;5.976;2024-02-26T03:55:05;63.61;36.44;83.83;;
66888;Laerm;67239;51.680;5.976;2024-02-26T03:58:55;56.33;36.91;75.95;;
66888;Laerm;67239;51.680;5.976;2024-02-26T04:03:11;63.48;38.31;81.57;;
66888;Laerm;67239;51.680;5.976;2024-02-26T04:06:51;43.94;38.13;57.39;;
66888;Laerm;67239;51.680;5.976;2024-02-26T04:10:17;51.82;40.37;72.43;;
66888;Laerm;67239;51.680;5.976;2024-02-26T04:13:56;64.00;40.89;81.51;;
66888;Laerm;67239;51.680;5.976;2024-02-26T04:17:39;66.04;43.58;79.94;;
66888;Laerm;67239;51.680;5.976;2024-02-26T04:21:16;61.92;38.93;80.64;;
66888;Laerm;67239;51.680;5.976;2024-02-26T04:24:57;62.17;39.90;80.81;;
66888;Laerm;67239;51.680;5.976;2024-02-26T04:28:13;60.32;41.65;75.63;;
66888;Laerm;67239;51.680;5.976;2024-02-26T04:32:07;68.21;43.52;83.17;;
66888;Laerm;67239;51.680;5.976;2024-02-26T04:35:33;65.55;39.67;80.68;;
66888;Laerm;67239;51.680;5.976;2024-02-26T04:39:30;71.09;42.08;85.71;;
66888;Laerm;67239;51.680;5.976;2024-02-26T04:46:14;62.99;39.48;81.47;;
66888;Laerm;67239;51.680;5.976;2024-02-26T04:49:11;60.41;39.29;77.40;;
66888;Laerm;67239;51.680;5.976;2024-02-26T04:52:09;68.84;44.93;80.04;;
66888;Laerm;67239;51.680;5.976;2024-02-26T04:56:20;63.12;42.74;78.53;;
66888;Laerm;67239;51.680;5.976;2024-02-26T04:59:46;62.81;42.68;78.96;;
66888;Laerm;67239;51.680;5.976;2024-02-26T05:03:16;67.95;40.62;81.97;;
66888;Laerm;67239;51.680;5.976;2024-02-26T05:06:42;67.66;42.17;81.54;;
66888;Laerm;67239;51.680;5.976;2024-02-26T05:09:52;67.27;41.58;80.73;;
66888;Laerm;67239;51.680;5.976;2024-02-26T05:13:13;69.14;40.58;84.82;;
66888;Laerm;67239;51.680;5.976;2024-02-26T05:16:26;69.09;39.97;84.36;;
66888;Laerm;67239;51.680;5.976;2024-02-26T05:19:33;67.08;41.75;85.09;;
66888;Laerm;67239;51.680;5.976;2024-02-26T05:23:03;67.91;42.14;83.72;;
66888;Laerm;67239;51.680;5.976;2024-02-26T05:26:23;67.46;42.97;83.46;;
66888;Laerm;67239;51.680;5.976;2024-02-26T05:30:42;65.69;44.92;81.72;;
66888;Laerm;67239;51.680;5.976;2024-02-26T05:34:23;69.11;44.42;85.23;;
66888;Laerm;67239;51.680;5.976;2024-02-26T05:37:35;66.38;42.62;80.62;;
66888;Laerm;67239;51.680;5.976;2024-02-26T05:41:05;65.99;45.14;79.27;;
66888;Laerm;67239;51.680;5.976;2024-02-26T05:45:14;65.54;45.37;80.05;;
66888;Laerm;67239;51.680;5.976;2024-02-26T05:52:39;68.37;45.64;81.90;;
66888;Laerm;67239;51.680;5.976;2024-02-26T05:55:07;72.06;53.54;84.14;;
66888;Laerm;67239;51.680;5.976;2024-02-26T05:57:36;69.27;48.22;84.57;;
66888;Laerm;67239;51.680;5.976;2024-02-26T06:00:04;70.07;44.39;83.48;;
66888;Laerm;67239;51.680;5.976;2024-02-26T06:02:38;69.78;46.63;82.36;;
66888;Laerm;67239;51.680;5.976;2024-02-26T06:05:06;68.76;43.91;84.97;;
66888;Laerm;67239;51.680;5.976;2024-02-26T06:07:34;65.64;45.34;82.66;;
66888;Laerm;67239;51.680;5.976;2024-02-26T06:10:02;69.20;47.17;83.58;;
66888;Laerm;67239;51.680;5.976;2024-02-26T06:12:31;68.33;46.05;83.19;;
66888;Laerm;67239;51.680;5.976;2024-02-26T06:14:59;66.65;48.12;79.08;;
66888;Laerm;67239;51.680;5.976;2024-02-26T06:17:28;69.81;49.22;83.30;;
66888;Laerm;67239;51.680;5.976;2024-02-26T06:19:55;71.30;49.78;84.79;;
66888;Laerm;67239;51.680;5.976;2024-02-26T06:22:23;71.15;53.13;82.71;;
66888;Laerm;67239;51.680;5.976;2024-02-26T06:24:50;71.20;49.33;84.75;;
66888;Laerm;67239;51.680;5.976;2024-02-26T06:27:17;69.12;44.72;87.17;;
66888;Laerm;67239;51.680;5.976;2024-02-26T06:29:44;68.89;46.76;81.10;;
66888;Laerm;67239;51.680;5.976;2024-02-26T06:32:11;70.77;46.73;82.96;;
66888;Laerm;67239;51.680;5.976;2024-02-26T06:34:38;70.56;49.10;83.91;;
66888;Laerm;67239;51.680;5.976;2024-02-26T06:37:08;68.94;46.34;82.18;;
66888;Laerm;67239;51.680;5.976;2024-02-26T06:39:35;71.02;48.94;86.61;;
66888;Laerm;67239;51.680;5.976;2024-02-26T06:42:02;71.44;50.24;85.66;;
66888;Laerm;67239;51.680;5.976;2024-02-26T06:44:29;69.30;48.74;81.17;;
66888;Laerm;67239;51.680;5.976;2024-02-26T06:46:59;71.55;52.65;82.20;;
66888;Laerm;67239;51.680;5.976;2024-02-26T06:49:27;71.29;50.34;83.01;;
66888;Laerm;67239;51.680;5.976;2024-02-26T06:51:56;68.42;48.61;80.97;;
66888;Laerm;67239;51.680;5.976;2024-02-26T06:54:23;73.47;58.95;84.36;;
66888;Laerm;67239;51.680;5.976;2024-02-26T06:56:50;70.65;52.42;85.19;;
66888;Laerm;67239;51.680;5.976;2024-02-26T06:59:18;68.81;52.57;80.68;;
66888;Laerm;67239;51.680;5.976;2024-02-26T07:01:46;71.74;51.69;83.61;;
66888;Laerm;67239;51.680;5.976;2024-02-26T07:04:13;70.09;50.85;83.18;;
66888;Laerm;67239;51.680;5.976;2024-02-26T07:06:41;72.84;52.74;85.79;;
66888;Laerm;67239;51.680;5.976;2024-02-26T07:09:09;71.75;52.33;83.90;;
66888;Laerm;67239;51.680;5.976;2024-02-26T07:11:39;70.66;50.54;85.18;;
66888;Laerm;67239;51.680;5.976;2024-02-26T07:14:10;65.38;47.97;85.43;;
66888;Laerm;67239;51.680;5.976;2024-02-26T07:16:37;68.83;48.65;82.08;;
66888;Laerm;67239;51.680;5.976;2024-02-26T07:19:05;72.77;54.06;83.26;;
66888;Laerm;67239;51.680;5.976;2024-02-26T07:21:32;72.30;54.30;81.88;;
66888;Laerm;67239;51.680;5.976;2024-02-26T07:23:59;71.51;52.51;82.77;;
66888;Laerm;67239;51.680;5.976;2024-02-26T07:26:26;67.00;51.92;78.59;;
66888;Laerm;67239;51.680;5.976;2024-02-26T07:28:53;72.59;52.41;85.15;;
66888;Laerm;67239;51.680;5.976;2024-02-26T07:31:20;70.99;51.21;84.71;;
66888;Laerm;67239;51.680;5.976;2024-02-26T07:33:47;70.86;49.79;86.08;;
66888;Laerm;67239;51.680;5.976;2024-02-26T07:36:15;71.89;49.70;82.75;;
66888;Laerm;67239;51.680;5.976;2024-02-26T07:38:42;70.38;52.70;80.44;;
66888;Laerm;67239;51.680;5.976;2024-02-26T07:41:11;71.83;51.32;85.06;;
66888;Laerm;67239;51.680;5.976;2024-02-26T07:43:38;69.99;51.40;82.58;;
66888;Laerm;67239;51.680;5.976;2024-02-26T07:46:06;72.75;53.00;84.28;;
66888;Laerm;67239;51.680;5.976;2024-02-26T07:48:33;71.51;50.57;85.34;;
66888;Laerm;67239;51.680;5.976;2024-02-26T07:51:00;69.00;49.12;81.12;;
66888;Laerm;67239;51.680;5.976;2024-02-26T07:53:30;71.00;46.89;84.58;;
66888;Laerm;67239;51.680;5.976;2024-02-26T07:55:57;70.56;48.84;82.90;;
66888;Laerm;67239;51.680;5.976;2024-02-26T07:58:24;69.07;48.15;82.99;;
66888;Laerm;67239;51.680;5.976;2024-02-26T08:00:51;71.20;48.29;86.22;;
66888;Laerm;67239;51.680;5.976;2024-02-26T08:03:18;62.87;44.73;78.83;;
66888;Laerm;67239;51.680;5.976;2024-02-26T08:05:46;67.35;42.94;80.05;;
66888;Laerm;67239;51.680;5.976;2024-02-26T08:08:13;71.67;48.96;85.52;;
66888;Laerm;67239;51.680;5.976;2024-02-26T08:10:40;69.41;47.76;80.85;;
66888;Laerm;67239;51.680;5.976;2024-02-26T08:13:07;70.91;51.26;83.03;;
66888;Laerm;67239;51.680;5.976;2024-02-26T08:15:35;69.00;47.56;82.78;;
66888;Laerm;67239;51.680;5.976;2024-02-26T08:18:05;71.76;46.87;83.96;;
66888;Laerm;67239;51.680;5.976;2024-02-26T08:20:32;69.77;50.34;82.04;;
66888;Laerm;67239;51.680;5.976;2024-02-26T08:22:59;71.19;45.71;84.41;;
66888;Laerm;67239;51.680;5.976;2024-02-26T08:25:26;69.81;47.05;83.87;;
66888;Laerm;67239;51.680;5.976;2024-02-26T08:27:54;69.13;45.50;80.80;;
66888;Laerm;67239;51.680;5.976;2024-02-26T08:30:21;70.98;47.68;84.54;;
66888;Laerm;67239;51.680;5.976;2024-02-26T08:32:48;71.48;45.57;84.95;;
66888;Laerm;67239;51.680;5.976;2024-02-26T08:35:19;72.85;51.03;84.43;;
66888;Laerm;67239;51.680;5.976;2024-02-26T08:37:47;70.58;49.47;82.71;;
66888;Laerm;67239;51.680;5.976;2024-02-26T08:40:15;70.90;46.27;82.62;;
66888;Laerm;67239;51.680;5.976;2024-02-26T08:42:42;69.56;45.61;82.14;;
66888;Laerm;67239;51.680;5.976;2024-02-26T08:45:11;71.11;49.18;83.35;;
66888;Laerm;67239;51.680;5.976;2024-02-26T08:47:39;73.08;49.65;84.08;;
66888;Laerm;67239;51.680;5.976;2024-02-26T08:50:07;70.20;47.87;83.34;;
66888;Laerm;67239;51.680;5.976;2024-02-26T08:52:36;70.80;50.26;84.22;;
66888;Laerm;67239;51.680;5.976;2024-02-26T08:55:04;69.54;45.33;80.63;;
66888;Laerm;67239;51.680;5.976;2024-02-26T08:57:32;71.81;50.42;86.06;;
66888;Laerm;67239;51.680;5.976;2024-02-26T09:00:01;68.93;48.74;80.67;;
66888;Laerm;67239;51.680;5.976;2024-02-26T09:02:28;69.98;49.09;82.37;;
66888;Laerm;67239;51.680;5.976;2024-02-26T09:04:55;70.75;48.30;83.38;;
66888;Laerm;67239;51.680;5.976;2024-02-26T09:07:23;70.97;48.32;83.75;;
66888;Laerm;67239;51.680;5.976;2024-02-26T09:09:50;70.23;46.50;84.72;;
66888;Laerm;67239;51.680;5.976;2024-02-26T09:12:17;71.57;51.68;84.91;;
66888;Laerm;67239;51.680;5.976;2024-02-26T09:14:45;70.19;52.13;83.93;;
66888;Laerm;67239;51.680;5.976;2024-02-26T09:17:12;68.58;48.88;83.40;;
66888;Laerm;67239;51.680;5.976;2024-02-26T09:19:39;70.22;47.74;84.34;;
66888;Laerm;67239;51.680;5.976;2024-02-26T09:22:06;70.20;52.07;81.61;;
66888;Laerm;67239;51.680;5.976;2024-02-26T09:24:33;70.17;52.33;84.75;;
66888;Laerm;67239;51.680;5.976;2024-02-26T09:27:01;70.15;47.44;84.79;;
66888;Laerm;67239;51.680;5.976;2024-02-26T09:29:28;70.74;49.85;85.79;;
66888;Laerm;67239;51.680;5.976;2024-02-26T09:31:55;67.61;46.68;80.68;;
66888;Laerm;67239;51.680;5.976;2024-02-26T09:34:22;73.94;54.21;85.04;;
66888;Laerm;67239;51.680;5.976;2024-02-26T09:36:50;70.91;51.24;84.60;;
66888;Laerm;67239;51.680;5.976;2024-02-26T09:39:17;71.69;50.21;84.21;;
66888;Laerm;67239;51.680;5.976;2024-02-26T09:41:48;71.32;49.91;85.31;;
66888;Laerm;67239;51.680;5.976;2024-02-26T09:44:19;69.99;50.59;82.74;;
66888;Laerm;67239;51.680;5.976;2024-02-26T09:46:48;69.51;49.24;83.21;;
66888;Laerm;67239;51.680;5.976;2024-02-26T09:49:24;70.70;50.95;83.70;;
66888;Laerm;67239;51.680;5.976;2024-02-26T09:51:53;70.05;48.92;86.04;;
66888;Laerm;67239;51.680;5.976;2024-02-26T09:54:21;72.72;53.32;85.94;;
66888;Laerm;67239;51.680;5.976;2024-02-26T09:56:49;70.50;47.34;83.82;;
66888;Laerm;67239;51.680;5.976;2024-02-26T09:59:39;70.06;52.21;81.22;;
66888;Laerm;67239;51.680;5.976;2024-02-26T10:02:20;66.54;47.59;80.27;;
66888;Laerm;67239;51.680;5.976;2024-02-26T10:04:49;71.30;49.03;83.43;;
66888;Laerm;67239;51.680;5.976;2024-02-26T10:07:18;69.99;46.06;84.49;;
66888;Laerm;67239;51.680;5.976;2024-02-26T10:09:47;70.39;46.91;84.16;;
66888;Laerm;67239;51.680;5.976;2024-02-26T10:12:16;69.06;46.20;85.18;;
66888;Laerm;67239;51.680;5.976;2024-02-26T10:14:44;67.06;47.81;79.78;;
66888;Laerm;67239;51.680;5.976;2024-02-26T10:17:11;69.32;48.10;84.67;;
66888;Laerm;67239;51.680;5.976;2024-02-26T10:19:38;71.12;50.36;84.99;;
66888;Laerm;67239;51.680;5.976;2024-02-26T10:22:06;66.27;46.82;79.84;;
66888;Laerm;67239;51.680;5.976;2024-02-26T10:24:33;70.58;51.02;84.49;;
66888;Laerm;67239;51.680;5.976;2024-02-26T10:27:02;71.34;50.09;84.01;;
66888;Laerm;67239;51.680;5.976;2024-02-26T10:29:31;72.24;51.73;85.61;;
66888;Laerm;67239;51.680;5.976;2024-02-26T10:31:58;72.09;49.59;85.20;;
66888;Laerm;67239;51.680;5.976;2024-02-26T10:34:26;70.47;49.55;83.03;;
66888;Laerm;67239;51.680;5.976;2024-02-26T10:36:53;70.47;51.29;85.26;;
66888;Laerm;67239;51.680;5.976;2024-02-26T10:39:21;69.58;45.63;84.10;;
66888;Laerm;67239;51.680;5.976;2024-02-26T10:41:49;68.80;47.35;85.97;;
66888;Laerm;67239;51.680;5.976;2024-02-26T10:44:17;68.35;46.46;84.54;;
66888;Laerm;67239;51.680;5.976;2024-02-26T10:46:48;70.07;47.11;85.69;;
66888;Laerm;67239;51.680;5.976;2024-02-26T10:49:19;73.19;47.38;86.36;;
66888;Laerm;67239;51.680;5.976;2024-02-26T10:51:55;70.55;47.81;83.22;;
66888;Laerm;67239;51.680;5.976;2024-02-26T10:54:26;69.41;48.70;84.32;;
66888;Laerm;67239;51.680;5.976;2024-02-26T10:56:57;69.51;47.96;84.47;;
66888;Laerm;67239;51.680;5.976;2024-02-26T10:59:26;72.18;45.10;86.30;;
66888;Laerm;67239;51.680;5.976;2024-02-26T11:01:54;73.07;50.86;87.33;;
66888;Laerm;67239;51.680;5.976;2024-02-26T11:04:23;72.24;49.08;85.75;;
66888;Laerm;67239;51.680;5.976;2024-02-26T11:06:56;73.57;50.19;86.04;;
66888;Laerm;67239;51.680;5.976;2024-02-26T11:09:25;73.43;51.01;86.50;;
66888;Laerm;67239;51.680;5.976;2024-02-26T11:11:54;71.16;48.91;86.10;;
66888;Laerm;67239;51.680;5.976;2024-02-26T11:14:23;71.62;51.31;85.52;;
66888;Laerm;67239;51.680;5.976;2024-02-26T11:16:55;73.30;54.07;85.70;;
66888;Laerm;67239;51.680;5.976;2024-02-26T11:19:24;70.21;50.32;82.31;;
66888;Laerm;67239;51.680;5.976;2024-02-26T11:21:53;73.02;53.07;85.92;;
66888;Laerm;67239;51.680;5.976;2024-02-26T11:24:20;72.85;51.22;85.78;;
66888;Laerm;67239;51.680;5.976;2024-02-26T11:26:54;73.41;50.05;86.25;;
66888;Laerm;67239;51.680;5.976;2024-02-26T11:29:42;74.00;54.72;84.16;;
66888;Laerm;67239;51.680;5.976;2024-02-26T11:32:10;73.60;53.32;84.81;;
66888;Laerm;67239;51.680;5.976;2024-02-26T11:34:38;73.07;53.04;86.53;;
66888;Laerm;67239;51.680;5.976;2024-02-26T11:37:14;73.67;52.85;85.45;;
66888;Laerm;67239;51.680;5.976;2024-02-26T11:39:43;74.75;56.00;83.57;;
66888;Laerm;67239;51.680;5.976;2024-02-26T11:42:16;72.25;50.22;85.84;;
66888;Laerm;67239;51.680;5.976;2024-02-26T11:44:44;71.23;50.94;84.73;;
66888;Laerm;67239;51.680;5.976;2024-02-26T11:47:14;72.88;52.25;86.20;;
66888;Laerm;67239;51.680;5.976;2024-02-26T11:49:44;71.24;48.36;84.89;;
66888;Laerm;67239;51.680;5.976;2024-02-26T11:52:13;71.85;53.00;87.41;;
66888;Laerm;67239;51.680;5.976;2024-02-26T11:54:51;70.99;50.51;83.87;;
66888;Laerm;67239;51.680;5.976;2024-02-26T11:57:26;71.33;48.93;84.85;;
66888;Laerm;67239;51.680;5.976;2024-02-26T11:59:56;72.07;51.81;85.87;;
66888;Laerm;67239;51.680;5.976;2024-02-26T12:02:50;69.88;50.68;82.25;;
66888;Laerm;67239;51.680;5.976;2024-02-26T12:05:33;69.33;49.07;85.36;;
66888;Laerm;67239;51.680;5.976;2024-02-26T12:10:37;72.37;50.37;82.81;;
66888;Laerm;67239;51.680;5.976;2024-02-26T12:13:15;71.62;49.38;85.27;;
66888;Laerm;67239;51.680;5.976;2024-02-26T12:15:57;71.04;49.39;85.79;;
66888;Laerm;67239;51.680;5.976;2024-02-26T12:18:26;70.66;50.83;83.58;;
66888;Laerm;67239;51.680;5.976;2024-02-26T12:21:01;69.96;50.74;84.38;;
66888;Laerm;67239;51.680;5.976;2024-02-26T12:23:29;70.31;50.12;84.56;;
66888;Laerm;67239;51.680;5.976;2024-02-26T12:26:00;72.23;50.68;85.91;;
66888;Laerm;67239;51.680;5.976;2024-02-26T12:28:32;72.44;52.38;84.07;;
66888;Laerm;67239;51.680;5.976;2024-02-26T12:30:59;74.04;53.60;85.81;;
66888;Laerm;67239;51.680;5.976;2024-02-26T12:33:28;75.17;51.85;85.40;;
66888;Laerm;67239;51.680;5.976;2024-02-26T12:35:57;73.25;53.60;84.56;;
66888;Laerm;67239;51.680;5.976;2024-02-26T12:38:27;73.43;53.08;84.83;;
66888;Laerm;67239;51.680;5.976;2024-02-26T12:40:54;73.76;56.16;84.71;;
66888;Laerm;67239;51.680;5.976;2024-02-26T12:43:21;73.88;53.83;87.85;;
66888;Laerm;67239;51.680;5.976;2024-02-26T12:45:49;71.16;51.94;85.36;;
66888;Laerm;67239;51.680;5.976;2024-02-26T12:48:17;74.80;54.06;86.24;;
66888;Laerm;67239;51.680;5.976;2024-02-26T12:50:47;71.51;52.28;85.28;;
66888;Laerm;67239;51.680;5.976;2024-02-26T12:53:15;72.82;51.83;84.49;;
66888;Laerm;67239;51.680;5.976;2024-02-26T12:55:43;73.59;52.60;85.53;;
66888;Laerm;67239;51.680;5.976;2024-02-26T12:58:11;72.87;52.27;85.96;;
66888;Laerm;67239;51.680;5.976;2024-02-26T13:00:39;73.07;48.81;85.36;;
66888;Laerm;67239;51.680;5.976;2024-02-26T13:03:09;72.37;52.63;82.43;;
66888;Laerm;67239;51.680;5.976;2024-02-26T13:05:37;72.90;53.21;85.82;;
66888;Laerm;67239;51.680;5.976;2024-02-26T13:08:05;73.72;53.97;86.03;;
66888;Laerm;67239;51.680;5.976;2024-02-26T13:10:36;74.35;51.48;86.27;;
66888;Laerm;67239;51.680;5.976;2024-02-26T13:13:04;74.48;52.02;86.25;;
66888;Laerm;67239;51.680;5.976;2024-02-26T13:15:32;72.21;54.11;85.14;;
66888;Laerm;67239;51.680;5.976;2024-02-26T13:18:10;71.43;51.86;82.99;;
66888;Laerm;67239;51.680;5.976;2024-02-26T13:20:38;73.09;49.68;85.34;;
66888;Laerm;67239;51.680;5.976;2024-02-26T13:23:12;71.98;49.39;84.60;;
66888;Laerm;67239;51.680;5.976;2024-02-26T13:25:39;71.49;50.93;81.62;;
66888;Laerm;67239;51.680;5.976;2024-02-26T13:28:16;70.42;49.50;82.86;;
66888;Laerm;67239;51.680;5.976;2024-02-26T13:30:54;71.78;50.96;85.82;;
66888;Laerm;67239;51.680;5.976;2024-02-26T13:33:25;71.60;51.31;81.58;;
66888;Laerm;67239;51.680;5.976;2024-02-26T13:35:58;72.11;53.72;87.21;;
66888;Laerm;67239;51.680;5.976;2024-02-26T13:38:27;71.64;52.78;83.23;;
66888;Laerm;67239;51.680;5.976;2024-02-26T13:40:57;69.94;49.49;84.37;;
66888;Laerm;67239;51.680;5.976;2024-02-26T13:43:24;72.51;53.94;86.51;;
66888;Laerm;67239;51.680;5.976;2024-02-26T13:45:56;71.49;50.41;86.10;;
66888;Laerm;67239;51.680;5.976;2024-02-26T13:48:38;73.60;51.76;87.15;;
66888;Laerm;67239;51.680;5.976;2024-02-26T13:51:14;71.54;51.66;86.91;;
66888;Laerm;67239;51.680;5.976;2024-02-26T13:53:41;71.72;49.68;85.54;;
66888;Laerm;67239;51.680;5.976;2024-02-26T13:56:10;73.69;52.51;85.50;;
66888;Laerm;67239;51.680;5.976;2024-02-26T13:58:37;73.50;55.21;86.08;;
66888;Laerm;67239;51.680;5.976;2024-02-26T14:01:04;73.61;53.36;84.28;;
66888;Laerm;67239;51.680;5.976;2024-02-26T14:03:32;73.77;53.68;85.73;;
66888;Laerm;67239;51.680;5.976;2024-02-26T14:06:00;73.97;51.48;86.54;;
66888;Laerm;67239;51.680;5.976;2024-02-26T14:08:30;71.22;53.65;86.19;;
66888;Laerm;67239;51.680;5.976;2024-02-26T14:10:57;72.87;53.37;84.58;;
66888;Laerm;67239;51.680;5.976;2024-02-26T14:13:27;75.09;55.22;86.17;;
66888;Laerm;67239;51.680;5.976;2024-02-26T14:15:54;72.42;52.75;84.50;;
66888;Laerm;67239;51.680;5.976;2024-02-26T14:18:21;74.62;53.90;88.15;;
66888;Laerm;67239;51.680;5.976;2024-02-26T14:20:48;74.29;52.92;87.41;;
66888;Laerm;67239;51.680;5.976;2024-02-26T14:23:15;72.71;52.18;85.85;;
66888;Laerm;67239;51.680;5.976;2024-02-26T14:25:42;73.15;52.69;87.48;;
66888;Laerm;67239;51.680;5.976;2024-02-26T14:28:10;74.76;54.38;88.76;;
66888;Laerm;67239;51.680;5.976;2024-02-26T14:30:47;73.05;50.37;85.44;;
66888;Laerm;67239;51.680;5.976;2024-02-26T14:33:14;74.64;54.45;87.56;;
66888;Laerm;67239;51.680;5.976;2024-02-26T14:35:42;73.20;51.08;85.57;;
66888;Laerm;67239;51.680;5.976;2024-02-26T14:38:09;71.35;51.60;83.73;;
66888;Laerm;67239;51.680;5.976;2024-02-26T14:40:36;73.98;52.51;84.45;;
66888;Laerm;67239;51.680;5.976;2024-02-26T14:43:04;72.07;51.81;85.93;;
66888;Laerm;67239;51.680;5.976;2024-02-26T14:45:31;71.39;47.94;84.27;;
66888;Laerm;67239;51.680;5.976;2024-02-26T14:47:59;73.12;52.40;85.23;;
66888;Laerm;67239;51.680;5.976;2024-02-26T14:50:26;70.27;50.54;86.45;;
66888;Laerm;67239;51.680;5.976;2024-02-26T14:52:53;71.54;48.24;86.64;;
66888;Laerm;67239;51.680;5.976;2024-02-26T14:55:20;72.39;49.78;84.14;;
66888;Laerm;67239;51.680;5.976;2024-02-26T14:57:47;69.14;47.37;85.29;;
66888;Laerm;67239;51.680;5.976;2024-02-26T15:00:15;72.43;50.44;84.00;;
66888;Laerm;67239;51.680;5.976;2024-02-26T15:02:42;70.94;50.99;85.06;;
66888;Laerm;67239;51.680;5.976;2024-02-26T15:05:09;74.28;53.85;85.31;;
66888;Laerm;67239;51.680;5.976;2024-02-26T15:07:38;72.70;53.85;83.17;;
66888;Laerm;67239;51.680;5.976;2024-02-26T15:10:07;75.20;56.29;86.29;;
66888;Laerm;67239;51.680;5.976;2024-02-26T15:12:35;73.76;51.90;85.05;;
66888;Laerm;67239;51.680;5.976;2024-02-26T15:15:03;72.91;53.50;85.31;;
66888;Laerm;67239;51.680;5.976;2024-02-26T15:17:30;70.08;50.00;84.29;;
66888;Laerm;67239;51.680;5.976;2024-02-26T15:19:59;70.17;50.29;85.67;;
66888;Laerm;67239;51.680;5.976;2024-02-26T15:22:27;70.20;49.35;84.83;;
66888;Laerm;67239;51.680;5.976;2024-02-26T15:24:54;72.85;53.17;86.55;;
66888;Laerm;67239;51.680;5.976;2024-02-26T15:27:22;70.11;51.91;80.99;;
66888;Laerm;67239;51.680;5.976;2024-02-26T15:29:49;69.75;50.30;83.16;;
66888;Laerm;67239;51.680;5.976;2024-02-26T15:32:23;70.51;53.28;82.70;;